createdAt,value
2018-12-13T00:01:38.012Z,12.70
2018-12-13T00:04:09.240Z,12.70
2018-12-13T00:06:44.650Z,12.70
2018-12-13T00:09:27.093Z,12.60
2018-12-13T00:11:56.953Z,12.70
2018-12-13T00:14:25.065Z,12.70
2018-12-13T00:16:56.202Z,12.70
2018-12-13T00:19:24.309Z,12.70
2018-12-13T00:21:52.445Z,12.70
2018-12-13T00:24:20.569Z,12.70
2018-12-13T00:26:51.786Z,12.70
2018-12-13T00:29:19.918Z,12.70
2018-12-13T00:31:48.037Z,12.60
2018-12-13T00:34:16.158Z,12.70
2018-12-13T00:36:48.266Z,12.70
2018-12-13T00:39:16.396Z,12.70
2018-12-13T00:41:44.534Z,12.60
2018-12-13T00:44:12.669Z,12.60
2018-12-13T00:46:44.660Z,12.60
2018-12-13T00:49:12.786Z,12.60
2018-12-13T00:51:40.878Z,12.60
2018-12-13T00:54:08.999Z,12.60
2018-12-13T00:56:40.804Z,12.60
2018-12-13T00:59:08.942Z,12.60
2018-12-13T01:01:37.056Z,12.60
2018-12-13T01:04:05.169Z,12.60
2018-12-13T01:06:37.217Z,12.70
2018-12-13T01:09:06.413Z,12.70
2018-12-13T01:11:34.559Z,12.60
2018-12-13T01:14:02.699Z,12.60
2018-12-13T01:16:33.958Z,12.60
2018-12-13T01:19:02.075Z,12.60
2018-12-13T01:21:30.170Z,12.50
2018-12-13T01:23:58.286Z,12.50
2018-12-13T01:26:29.627Z,12.60
2018-12-13T01:28:57.729Z,12.60
2018-12-13T01:31:25.822Z,12.60
2018-12-13T01:33:54.213Z,12.60
2018-12-13T01:36:25.398Z,12.50
2018-12-13T01:38:53.518Z,12.60
2018-12-13T01:41:21.645Z,12.60
2018-12-13T01:43:49.758Z,12.50
2018-12-13T01:46:21.833Z,12.60
2018-12-13T01:48:49.957Z,12.50
2018-12-13T01:51:18.077Z,12.50
2018-12-13T01:53:46.183Z,12.60
2018-12-13T01:56:17.725Z,12.60
2018-12-13T01:58:45.853Z,12.50
2018-12-13T02:01:13.954Z,12.60
2018-12-13T02:03:42.077Z,12.50
2018-12-13T02:06:13.433Z,12.50
2018-12-13T02:08:41.562Z,12.50
2018-12-13T02:11:09.662Z,12.50
2018-12-13T02:13:37.827Z,12.50
2018-12-13T02:16:09.027Z,12.50
2018-12-13T02:18:37.177Z,12.50
2018-12-13T02:21:05.262Z,12.50
2018-12-13T02:23:33.380Z,12.50
2018-12-13T02:26:04.502Z,12.50
2018-12-13T02:28:32.622Z,12.50
2018-12-13T02:31:00.725Z,12.50
2018-12-13T02:33:28.861Z,12.50
2018-12-13T02:36:00.826Z,12.60
2018-12-13T02:38:28.998Z,12.50
2018-12-13T02:40:57.131Z,12.50
2018-12-13T02:43:25.266Z,12.50
2018-12-13T02:45:57.242Z,12.50
2018-12-13T02:48:25.382Z,12.50
2018-12-13T02:50:53.514Z,12.50
2018-12-13T02:53:21.626Z,12.50
2018-12-13T02:55:53.573Z,12.50
2018-12-13T02:58:21.705Z,12.50
2018-12-13T03:00:51.022Z,12.50
2018-12-13T03:03:19.168Z,12.50
2018-12-13T03:05:50.833Z,12.50
2018-12-13T03:08:18.957Z,12.50
2018-12-13T03:10:47.078Z,12.40
2018-12-13T03:13:15.218Z,12.50
2018-12-13T03:15:47.263Z,12.50
2018-12-13T03:18:15.386Z,12.50
2018-12-13T03:20:43.529Z,12.40
2018-12-13T03:23:11.672Z,12.40
2018-12-13T03:25:43.742Z,12.40
2018-12-13T03:28:11.957Z,12.40
2018-12-13T03:30:40.204Z,12.50
2018-12-13T03:33:08.385Z,12.50
2018-12-13T03:35:40.030Z,12.50
2018-12-13T03:38:08.158Z,12.40
2018-12-13T03:40:36.308Z,12.40
2018-12-13T03:43:04.433Z,12.40
2018-12-13T03:45:36.515Z,12.40
2018-12-13T03:48:04.642Z,12.40
2018-12-13T03:50:32.780Z,12.40
2018-12-13T03:53:00.885Z,12.40
2018-12-13T03:55:33.008Z,12.30
2018-12-13T03:58:01.154Z,12.40
2018-12-13T04:00:29.334Z,12.30
2018-12-13T04:02:57.470Z,12.40
2018-12-13T04:05:29.440Z,12.40
2018-12-13T04:07:57.609Z,12.30
2018-12-13T04:10:25.742Z,12.30
2018-12-13T04:12:53.869Z,12.30
2018-12-13T04:15:25.918Z,12.20
2018-12-13T04:17:54.055Z,12.30
2018-12-13T04:20:22.298Z,12.30
2018-12-13T04:22:50.431Z,12.20
2018-12-13T04:25:22.435Z,12.20
2018-12-13T04:27:50.553Z,12.20
2018-12-13T04:30:18.705Z,12.20
2018-12-13T04:32:46.854Z,12.20
2018-12-13T04:35:18.149Z,12.20
2018-12-13T04:37:46.305Z,12.20
2018-12-13T04:40:14.461Z,12.20
2018-12-13T04:42:42.554Z,12.10
2018-12-13T04:45:14.527Z,12.10
2018-12-13T04:47:42.618Z,12.10
2018-12-13T04:50:10.729Z,12.10
2018-12-13T04:52:38.828Z,12.10
2018-12-13T04:55:10.085Z,12.10
2018-12-13T04:57:38.203Z,12.10
2018-12-13T05:00:07.095Z,12.10
2018-12-13T05:02:35.191Z,12.10
2018-12-13T05:05:06.521Z,12.10
2018-12-13T05:07:34.614Z,12.10
2018-12-13T05:10:02.723Z,12.10
2018-12-13T05:12:30.869Z,12.10
2018-12-13T05:15:02.024Z,12.10
2018-12-13T05:17:30.130Z,12.10
2018-12-13T05:19:58.233Z,12.20
2018-12-13T05:22:26.417Z,12.10
2018-12-13T05:24:54.549Z,12.10
2018-12-13T05:27:22.641Z,12.10
2018-12-13T05:29:50.757Z,12.10
2018-12-13T05:32:18.875Z,12.10
2018-12-13T05:34:47.026Z,12.10
2018-12-13T05:37:15.139Z,12.10
2018-12-13T05:39:43.270Z,12.10
2018-12-13T05:42:11.366Z,12.10
2018-12-13T05:44:39.491Z,12.10
2018-12-13T05:47:10.806Z,12.10
2018-12-13T05:49:38.917Z,12.10
2018-12-13T05:52:07.005Z,12.10
2018-12-13T05:54:35.126Z,12.10
2018-12-13T05:57:07.106Z,12.10
2018-12-13T05:59:35.205Z,12.10
2018-12-13T06:02:03.317Z,12.10
2018-12-13T06:04:31.446Z,12.10
2018-12-13T06:07:03.410Z,12.10
2018-12-13T06:09:31.527Z,12.10
2018-12-13T06:11:59.646Z,12.10
2018-12-13T06:14:27.734Z,12.10
2018-12-13T06:16:59.769Z,12.10
2018-12-13T06:19:27.857Z,12.10
2018-12-13T06:21:55.979Z,12.10
2018-12-13T06:24:24.080Z,12.10
2018-12-13T06:26:55.414Z,12.00
2018-12-13T06:29:23.518Z,12.10
2018-12-13T06:31:51.648Z,12.10
2018-12-13T06:34:19.760Z,12.00
2018-12-13T06:36:51.830Z,12.00
2018-12-13T06:39:23.582Z,12.00
2018-12-13T06:41:55.462Z,12.10
2018-12-13T06:44:36.171Z,12.10
2018-12-13T06:47:12.360Z,12.20
2018-12-13T06:49:46.481Z,12.10
2018-12-13T06:52:20.586Z,12.10
2018-12-13T06:54:51.873Z,12.10
2018-12-13T06:57:21.840Z,12.10
2018-12-13T06:59:49.950Z,12.10
2018-12-13T07:02:18.059Z,12.10
2018-12-13T07:04:46.171Z,12.10
2018-12-13T07:07:14.287Z,12.10
2018-12-13T07:09:42.390Z,12.10
2018-12-13T07:12:10.510Z,12.10
2018-12-13T07:14:38.619Z,12.10
2018-12-13T07:17:10.261Z,12.10
2018-12-13T07:19:38.465Z,12.10
2018-12-13T07:22:06.584Z,12.10
2018-12-13T07:24:34.696Z,12.10
2018-12-13T07:27:06.131Z,12.10
2018-12-13T07:29:34.226Z,12.10
2018-12-13T07:32:02.425Z,12.10
2018-12-13T07:34:30.530Z,12.10
2018-12-13T07:37:02.593Z,12.00
2018-12-13T07:39:30.702Z,12.10
2018-12-13T07:41:58.815Z,12.10
2018-12-13T07:44:26.921Z,12.10
2018-12-13T07:46:58.170Z,12.20
2018-12-13T07:49:26.269Z,12.10
2018-12-13T07:51:54.394Z,12.10
2018-12-13T07:54:22.490Z,12.10
2018-12-13T07:56:53.627Z,12.10
2018-12-13T07:59:21.730Z,12.10
2018-12-13T08:01:49.847Z,12.00
2018-12-13T08:04:17.945Z,12.10
2018-12-13T08:06:49.218Z,12.10
2018-12-13T08:09:17.321Z,12.10
2018-12-13T08:11:45.451Z,12.10
2018-12-13T08:14:13.579Z,12.10
2018-12-13T08:16:44.854Z,12.10
2018-12-13T08:19:12.958Z,12.20
2018-12-13T08:21:41.065Z,12.20
2018-12-13T08:24:09.177Z,12.20
2018-12-13T08:26:40.535Z,12.20
2018-12-13T08:29:08.635Z,12.20
2018-12-13T08:31:36.741Z,12.20
2018-12-13T08:34:04.844Z,12.20
2018-12-13T08:36:36.715Z,12.20
2018-12-13T08:39:07.490Z,12.20
2018-12-13T08:41:35.581Z,12.20
2018-12-13T08:44:05.661Z,12.20
2018-12-13T08:46:36.986Z,12.20
2018-12-13T08:49:05.087Z,12.30
2018-12-13T08:51:33.222Z,12.30
2018-12-13T08:54:01.329Z,12.30
2018-12-13T08:56:32.750Z,12.30
2018-12-13T08:59:00.867Z,12.30
2018-12-13T09:01:28.970Z,12.40
2018-12-13T09:03:57.081Z,12.30
2018-12-13T09:06:29.018Z,12.40
2018-12-13T09:08:57.139Z,12.40
2018-12-13T09:11:25.237Z,12.40
2018-12-13T09:13:53.423Z,12.40
2018-12-13T09:16:31.312Z,12.50
2018-12-13T09:18:55.398Z,12.50
2018-12-13T09:21:23.501Z,12.50
2018-12-13T09:23:51.605Z,12.60
2018-12-13T09:26:25.394Z,12.60
2018-12-13T09:28:53.566Z,12.70
2018-12-13T09:31:21.704Z,12.80
2018-12-13T09:33:49.883Z,12.90
2018-12-13T09:36:21.220Z,13.00
2018-12-13T09:38:49.333Z,13.10
2018-12-13T09:41:17.422Z,13.20
2018-12-13T09:43:45.567Z,13.40
2018-12-13T09:46:17.574Z,13.50
2018-12-13T09:48:45.711Z,13.50
2018-12-13T09:51:13.801Z,13.80
2018-12-13T09:53:41.934Z,14.40
2018-12-13T09:56:13.997Z,14.90
2018-12-13T09:58:42.105Z,15.40
2018-12-13T10:01:10.212Z,15.80
2018-12-13T10:03:38.325Z,16.20
2018-12-13T10:06:09.586Z,16.40
2018-12-13T10:08:37.697Z,16.20
2018-12-13T10:11:05.794Z,16.00
2018-12-13T10:13:33.941Z,15.70
2018-12-13T10:16:05.157Z,15.50
2018-12-13T10:18:33.267Z,15.40
2018-12-13T10:21:01.361Z,15.30
2018-12-13T10:23:29.471Z,15.40
2018-12-13T10:26:00.617Z,15.80
2018-12-13T10:28:28.717Z,16.00
2018-12-13T10:30:56.822Z,16.40
2018-12-13T10:33:24.929Z,16.60
2018-12-13T10:35:56.082Z,16.50
2018-12-13T10:38:34.422Z,16.20
2018-12-13T10:41:05.898Z,15.90
2018-12-13T10:43:41.309Z,15.60
2018-12-13T10:46:25.844Z,15.30
2018-12-13T10:48:59.997Z,15.10
2018-12-13T10:51:31.450Z,15.00
2018-12-13T10:54:03.510Z,14.80
2018-12-13T10:56:35.041Z,14.70
2018-12-13T10:59:03.161Z,14.60
2018-12-13T11:01:36.469Z,14.50
2018-12-13T11:04:04.589Z,14.50
2018-12-13T11:06:36.518Z,14.40
2018-12-13T11:09:04.997Z,14.30
2018-12-13T11:11:33.086Z,14.20
2018-12-13T11:14:01.200Z,14.20
2018-12-13T11:16:32.630Z,14.20
2018-12-13T11:19:00.749Z,14.10
2018-12-13T11:21:28.856Z,14.00
2018-12-13T11:23:56.979Z,14.00
2018-12-13T11:26:28.145Z,14.00
2018-12-13T11:29:33.510Z,14.00
2018-12-13T11:32:01.610Z,14.00
2018-12-13T11:34:29.726Z,14.00
2018-12-13T11:37:01.553Z,13.90
2018-12-13T11:39:29.780Z,13.90
2018-12-13T11:41:57.874Z,14.00
2018-12-13T11:44:26.511Z,14.00
2018-12-13T11:46:58.175Z,14.00
2018-12-13T11:49:26.457Z,14.10
2018-12-13T11:51:54.563Z,14.10
2018-12-13T11:54:38.370Z,14.10
2018-12-13T11:57:10.045Z,14.00
2018-12-13T11:59:38.147Z,14.00
2018-12-13T12:02:06.233Z,14.00
2018-12-13T12:04:34.342Z,13.90
2018-12-13T12:07:05.694Z,13.80
2018-12-13T12:09:33.813Z,13.80
2018-12-13T12:12:01.910Z,13.80
2018-12-13T12:14:30.013Z,13.80
2018-12-13T12:17:02.079Z,13.80
2018-12-13T12:19:30.201Z,13.90
2018-12-13T12:21:58.314Z,13.90
2018-12-13T12:24:26.431Z,13.90
2018-12-13T12:26:58.382Z,13.80
2018-12-13T12:29:26.486Z,13.80
2018-12-13T12:31:54.593Z,13.80
2018-12-13T12:34:22.718Z,13.80
2018-12-13T12:36:54.690Z,13.80
2018-12-13T12:39:22.822Z,13.90
2018-12-13T12:41:50.927Z,13.90
2018-12-13T12:44:19.127Z,13.90
2018-12-13T12:46:50.611Z,13.90
2018-12-13T12:49:20.417Z,14.10
2018-12-13T12:51:52.379Z,15.10
2018-12-13T12:54:22.349Z,18.10
2018-12-13T12:56:53.702Z,19.00
2018-12-13T12:59:25.563Z,21.80
2018-12-13T13:01:53.673Z,24.40
2018-12-13T13:04:21.784Z,25.00
2018-12-13T13:06:53.410Z,24.20
2018-12-13T13:09:25.037Z,22.80
2018-12-13T13:11:51.626Z,21.20
2018-12-13T13:14:19.721Z,20.10
2018-12-13T13:16:51.149Z,19.60
2018-12-13T13:19:19.256Z,19.30
2018-12-13T13:21:47.362Z,19.30
2018-12-13T13:24:15.458Z,20.30
2018-12-13T13:26:46.899Z,21.20
2018-12-13T13:29:15.011Z,21.80
2018-12-13T13:31:43.101Z,22.10
2018-12-13T13:34:11.215Z,21.60
2018-12-13T13:36:42.425Z,21.20
2018-12-13T13:39:10.545Z,20.90
2018-12-13T13:41:38.629Z,20.20
2018-12-13T13:44:06.746Z,20.10
2018-12-13T13:46:38.675Z,19.70
2018-12-13T13:49:06.782Z,19.30
2018-12-13T13:51:34.873Z,19.10
2018-12-13T13:54:02.971Z,18.80
2018-12-13T13:56:34.510Z,18.80
2018-12-13T13:59:02.624Z,18.80
2018-12-13T14:01:30.753Z,18.80
2018-12-13T14:03:59.438Z,18.80
2018-12-13T14:06:31.104Z,18.40
2018-12-13T14:08:59.215Z,17.70
2018-12-13T14:11:27.314Z,17.20
2018-12-13T14:13:55.409Z,17.00
2018-12-13T14:16:26.778Z,17.10
2018-12-13T14:18:54.877Z,17.00
2018-12-13T14:21:22.998Z,16.60
2018-12-13T14:23:51.102Z,16.40
2018-12-13T14:26:22.466Z,16.10
2018-12-13T14:28:50.562Z,16.00
2018-12-13T14:31:18.677Z,15.70
2018-12-13T14:33:46.769Z,15.60
2018-12-13T14:36:17.902Z,15.50
2018-12-13T14:38:46.005Z,15.40
2018-12-13T14:41:14.116Z,15.20
2018-12-13T14:43:42.204Z,15.20
2018-12-13T14:46:13.463Z,15.00
2018-12-13T14:48:41.591Z,14.90
2018-12-13T14:51:09.811Z,14.90
2018-12-13T14:53:37.928Z,14.80
2018-12-13T14:56:09.077Z,14.70
2018-12-13T14:58:37.176Z,14.60
2018-12-13T15:01:05.287Z,14.60
2018-12-13T15:03:33.552Z,14.50
2018-12-13T15:06:05.327Z,14.50
2018-12-13T15:08:33.430Z,14.40
2018-12-13T15:11:01.561Z,14.30
2018-12-13T15:13:29.665Z,14.20
2018-12-13T15:16:00.826Z,14.20
2018-12-13T15:18:28.937Z,14.10
2018-12-13T15:20:57.053Z,14.10
2018-12-13T15:23:25.133Z,14.00
2018-12-13T15:25:56.294Z,14.00
2018-12-13T15:28:24.421Z,13.90
2018-12-13T15:30:52.547Z,13.80
2018-12-13T15:33:20.642Z,13.80
2018-12-13T15:35:51.938Z,13.70
2018-12-13T15:38:20.040Z,13.70
2018-12-13T15:40:48.173Z,13.60
2018-12-13T15:43:16.274Z,13.60
2018-12-13T15:45:47.838Z,13.60
2018-12-13T15:48:15.942Z,13.60
2018-12-13T15:50:44.065Z,13.50
2018-12-13T15:53:12.167Z,13.50
2018-12-13T15:55:44.231Z,13.50
2018-12-13T15:58:12.330Z,13.50
2018-12-13T16:00:40.453Z,13.50
2018-12-13T16:03:08.562Z,13.40
2018-12-13T16:05:39.799Z,13.40
2018-12-13T16:08:08.011Z,13.40
2018-12-13T16:10:36.166Z,13.40
2018-12-13T16:13:04.251Z,13.30
2018-12-13T16:15:44.417Z,13.30
2018-12-13T16:18:25.306Z,13.40
2018-12-13T16:20:55.358Z,13.30
2018-12-13T16:23:23.454Z,13.30
2018-12-13T16:25:52.698Z,13.30
2018-12-13T16:28:24.518Z,13.20
2018-12-13T16:30:52.633Z,13.10
2018-12-13T16:33:20.733Z,13.20
2018-12-13T16:35:52.461Z,13.20
2018-12-13T16:38:20.557Z,13.10
2018-12-13T16:40:48.702Z,13.10
2018-12-13T16:43:16.797Z,13.20
2018-12-13T16:45:48.082Z,13.20
2018-12-13T16:48:16.182Z,13.20
2018-12-13T16:50:44.305Z,13.10
2018-12-13T16:53:12.401Z,13.10
2018-12-13T16:55:44.461Z,13.10
2018-12-13T16:58:12.603Z,13.00
2018-12-13T17:00:40.706Z,13.10
2018-12-13T17:03:20.161Z,13.00
2018-12-13T17:05:51.635Z,13.00
2018-12-13T17:08:19.742Z,13.00
2018-12-13T17:10:47.846Z,12.90
2018-12-13T17:13:15.986Z,12.90
2018-12-13T17:15:48.030Z,13.00
2018-12-13T17:18:16.168Z,13.00
2018-12-13T17:20:44.269Z,13.00
2018-12-13T17:23:12.449Z,13.00
2018-12-13T17:25:44.514Z,13.00
2018-12-13T17:28:12.638Z,12.90
2018-12-13T17:30:40.745Z,12.90
2018-12-13T17:33:08.907Z,12.80
2018-12-13T17:35:40.169Z,12.80
2018-12-13T17:38:08.310Z,12.80
2018-12-13T17:40:36.486Z,12.80
2018-12-13T17:43:04.606Z,12.80
2018-12-13T17:45:46.592Z,12.90
2018-12-13T17:48:19.250Z,12.80
2018-12-13T17:50:49.057Z,12.80
2018-12-13T17:59:11.669Z,12.80
2018-12-13T18:01:46.185Z,12.70
2018-12-13T18:04:17.463Z,12.70
2018-12-13T18:06:51.652Z,12.70
2018-12-13T18:09:23.121Z,12.80
2018-12-13T18:12:05.063Z,12.70
2018-12-13T18:14:37.101Z,12.70
2018-12-13T18:17:11.623Z,12.70
2018-12-13T18:19:45.369Z,12.70
2018-12-13T18:22:19.263Z,12.70
2018-12-13T18:24:50.562Z,12.70
2018-12-13T18:27:18.710Z,12.70
2018-12-13T18:29:46.833Z,12.70
2018-12-13T18:32:15.005Z,12.70
2018-12-13T18:34:43.125Z,12.70
2018-12-13T18:37:13.016Z,12.60
2018-12-13T18:39:51.352Z,12.70
2018-12-13T18:42:27.246Z,12.70
2018-12-13T18:45:05.559Z,12.70
2018-12-13T18:47:36.736Z,12.70
2018-12-13T18:50:05.482Z,12.70
2018-12-13T18:52:33.605Z,12.60
2018-12-13T18:55:05.063Z,12.60
2018-12-13T18:57:33.193Z,12.60
2018-12-13T19:00:01.317Z,12.70
2018-12-13T19:02:29.545Z,12.60
2018-12-13T19:07:53.828Z,12.60
2018-12-13T19:10:28.196Z,12.50
2018-12-13T19:13:03.938Z,12.60
2018-12-13T19:15:33.425Z,12.50
2018-12-13T19:18:07.815Z,12.50
2018-12-13T19:20:41.826Z,12.60
2018-12-13T19:23:22.006Z,12.60
2018-12-13T19:26:02.964Z,12.60
2018-12-13T19:28:34.092Z,12.60
2018-12-13T19:31:02.190Z,12.60
2018-12-13T19:33:30.396Z,12.60
2018-12-13T19:35:59.974Z,12.50
2018-12-13T19:38:29.950Z,12.60
2018-12-13T19:41:10.020Z,12.60
2018-12-13T19:43:41.970Z,12.60
2018-12-13T19:46:11.808Z,12.60
2018-12-13T19:48:40.022Z,12.60
2018-12-13T19:51:14.429Z,12.60
2018-12-13T19:53:51.740Z,12.60
2018-12-13T19:56:21.542Z,12.50
2018-12-13T19:58:51.502Z,12.60
2018-12-13T20:01:32.285Z,12.50
2018-12-13T20:04:10.589Z,12.50
2018-12-13T20:06:48.395Z,12.50
2018-12-13T20:09:19.889Z,12.50
2018-12-13T20:11:56.237Z,12.50
2018-12-13T20:14:27.617Z,12.50
2018-12-13T20:16:59.373Z,12.50
2018-12-13T20:19:27.532Z,12.40
2018-12-13T20:21:55.683Z,12.40
2018-12-13T20:24:24.497Z,12.40
2018-12-13T20:26:52.670Z,12.50
2018-12-13T20:29:21.109Z,12.40
2018-12-13T20:31:49.248Z,12.50
2018-12-13T20:34:17.424Z,12.40
2018-12-13T20:36:51.873Z,12.40
2018-12-13T20:39:29.501Z,12.40
2018-12-13T20:42:07.222Z,12.40
2018-12-13T20:44:51.646Z,12.40
2018-12-13T20:47:21.579Z,12.40
2018-12-13T20:49:49.726Z,12.40
2018-12-13T20:52:17.818Z,12.40
2018-12-13T20:54:45.952Z,12.40
2018-12-13T20:57:17.177Z,12.40
2018-12-13T20:59:45.318Z,12.40
2018-12-13T21:02:13.414Z,12.40
2018-12-13T21:04:41.536Z,12.40
2018-12-13T21:07:22.852Z,12.40
2018-12-13T21:10:07.752Z,12.40
2018-12-13T21:12:39.934Z,12.40
2018-12-13T21:15:20.327Z,12.40
2018-12-13T21:17:58.710Z,12.40
2018-12-13T21:20:32.796Z,12.40
2018-12-13T21:23:06.490Z,12.40
2018-12-13T21:25:43.427Z,12.40
2018-12-13T21:28:30.113Z,12.30
2018-12-13T21:31:01.673Z,12.30
2018-12-13T21:33:30.917Z,12.30
2018-12-13T21:36:02.406Z,12.30
2018-12-13T21:38:30.554Z,12.40
2018-12-13T21:40:58.649Z,12.40
2018-12-13T21:43:26.759Z,12.40
2018-12-13T21:46:00.621Z,12.40
2018-12-13T21:48:31.958Z,12.40
2018-12-13T21:51:00.057Z,12.40
2018-12-13T21:53:28.352Z,12.40
2018-12-13T21:56:06.531Z,12.30
2018-12-13T21:58:44.723Z,12.30
2018-12-13T22:01:15.998Z,12.40
2018-12-13T22:03:44.131Z,12.30
2018-12-13T22:06:24.314Z,12.40
2018-12-13T22:08:59.747Z,12.30
2018-12-13T22:11:29.102Z,12.30
2018-12-13T22:13:57.220Z,12.30
2018-12-13T22:16:28.364Z,12.30
2018-12-13T22:18:56.486Z,12.30
2018-12-13T22:21:24.590Z,12.30
2018-12-13T22:23:52.770Z,12.20
2018-12-13T22:26:22.215Z,12.20
2018-12-13T22:28:51.252Z,12.20
2018-12-13T22:31:20.345Z,12.30
2018-12-13T22:33:50.373Z,12.20
2018-12-13T22:36:20.151Z,12.20
2018-12-13T22:38:48.264Z,12.20
2018-12-13T22:41:16.391Z,12.20
2018-12-13T22:43:44.501Z,12.10
2018-12-13T22:46:22.326Z,12.20
2018-12-13T22:48:56.193Z,12.10
2018-12-13T22:51:27.633Z,12.10
2018-12-13T22:54:08.494Z,12.20
2018-12-13T22:56:40.158Z,12.20
2018-12-13T22:59:08.303Z,12.10
2018-12-13T23:01:36.406Z,12.00
2018-12-13T23:04:04.598Z,12.00
2018-12-13T23:06:35.841Z,12.00
2018-12-13T23:09:06.382Z,12.10
2018-12-13T23:11:35.493Z,12.00
2018-12-13T23:14:03.698Z,11.90
2018-12-13T23:16:44.581Z,11.90
2018-12-13T23:19:24.719Z,11.90
2018-12-13T23:21:56.379Z,11.80
2018-12-13T23:24:24.490Z,11.80
2018-12-13T23:26:58.106Z,11.80
2018-12-13T23:29:38.135Z,11.90
2018-12-13T23:32:15.740Z,11.90
2018-12-13T23:34:56.077Z,11.80
2018-12-13T23:37:31.377Z,11.80
2018-12-13T23:40:05.361Z,11.80
2018-12-13T23:42:36.685Z,11.80
2018-12-13T23:45:07.872Z,11.80
2018-12-13T23:47:39.510Z,11.80
2018-12-13T23:50:15.858Z,11.80
2018-12-13T23:52:45.177Z,11.80
2018-12-13T23:55:19.378Z,11.80
2018-12-13T23:57:50.557Z,11.80
